sensor_id;sensor_type;location;lat;lon;timestamp;P1;durP1;ratioP1;P2;durP2;ratioP2
23716;SDS011;22094;52.130;5.598;2024-02-21T00:02:10;15.25;;;9.75;;
23716;SDS011;22094;52.130;5.598;2024-02-21T00:04:38;17.05;;;9.35;;
23716;SDS011;22094;52.130;5.598;2024-02-21T00:09:56;24.85;;;9.90;;
23716;SDS011;22094;52.130;5.598;2024-02-21T00:12:31;18.35;;;9.27;;
23716;SDS011;22094;52.130;5.598;2024-02-21T00:14:59;16.88;;;9.00;;
23716;SDS011;22094;52.130;5.598;2024-02-21T00:17:28;17.48;;;8.98;;
23716;SDS011;22094;52.130;5.598;2024-02-21T00:19:54;18.85;;;9.52;;
23716;SDS011;22094;52.130;5.598;2024-02-21T00:22:20;16.92;;;8.48;;
23716;SDS011;22094;52.130;5.598;2024-02-21T00:24:48;18.90;;;9.50;;
23716;SDS011;22094;52.130;5.598;2024-02-21T00:27:17;15.70;;;8.43;;
23716;SDS011;22094;52.130;5.598;2024-02-21T00:29:48;14.00;;;8.57;;
23716;SDS011;22094;52.130;5.598;2024-02-21T00:32:17;17.50;;;8.90;;
23716;SDS011;22094;52.130;5.598;2024-02-21T00:34:50;19.15;;;9.07;;
23716;SDS011;22094;52.130;5.598;2024-02-21T00:37:19;16.35;;;8.57;;
23716;SDS011;22094;52.130;5.598;2024-02-21T00:39:47;16.90;;;8.20;;
23716;SDS011;22094;52.130;5.598;2024-02-21T00:42:13;15.57;;;9.02;;
23716;SDS011;22094;52.130;5.598;2024-02-21T00:44:39;13.90;;;8.13;;
23716;SDS011;22094;52.130;5.598;2024-02-21T00:47:07;17.10;;;8.93;;
23716;SDS011;22094;52.130;5.598;2024-02-21T00:49:36;15.07;;;8.60;;
23716;SDS011;22094;52.130;5.598;2024-02-21T00:52:02;21.13;;;8.27;;
23716;SDS011;22094;52.130;5.598;2024-02-21T00:54:33;20.40;;;9.00;;
23716;SDS011;22094;52.130;5.598;2024-02-21T01:00:04;16.75;;;8.40;;
23716;SDS011;22094;52.130;5.598;2024-02-21T01:02:33;18.55;;;8.43;;
23716;SDS011;22094;52.130;5.598;2024-02-21T01:04:59;17.25;;;8.30;;
23716;SDS011;22094;52.130;5.598;2024-02-21T01:07:31;19.17;;;8.75;;
23716;SDS011;22094;52.130;5.598;2024-02-21T01:10:02;13.30;;;8.02;;
23716;SDS011;22094;52.130;5.598;2024-02-21T01:12:28;19.13;;;8.30;;
23716;SDS011;22094;52.130;5.598;2024-02-21T01:14:56;20.33;;;8.88;;
23716;SDS011;22094;52.130;5.598;2024-02-21T01:17:36;20.13;;;8.38;;
23716;SDS011;22094;52.130;5.598;2024-02-21T01:20:14;15.65;;;8.63;;
23716;SDS011;22094;52.130;5.598;2024-02-21T01:22:40;15.70;;;8.65;;
23716;SDS011;22094;52.130;5.598;2024-02-21T01:25:09;16.70;;;8.40;;
23716;SDS011;22094;52.130;5.598;2024-02-21T01:27:35;18.58;;;8.05;;
23716;SDS011;22094;52.130;5.598;2024-02-21T01:30:08;16.17;;;8.13;;
23716;SDS011;22094;52.130;5.598;2024-02-21T01:32:35;20.83;;;8.23;;
23716;SDS011;22094;52.130;5.598;2024-02-21T01:35:06;18.40;;;8.35;;
23716;SDS011;22094;52.130;5.598;2024-02-21T01:37:41;19.10;;;8.20;;
23716;SDS011;22094;52.130;5.598;2024-02-21T01:40:10;22.65;;;8.55;;
23716;SDS011;22094;52.130;5.598;2024-02-21T01:42:45;18.98;;;8.52;;
23716;SDS011;22094;52.130;5.598;2024-02-21T01:45:12;19.20;;;8.23;;
23716;SDS011;22094;52.130;5.598;2024-02-21T01:47:38;17.25;;;8.07;;
23716;SDS011;22094;52.130;5.598;2024-02-21T01:50:04;14.82;;;8.63;;
23716;SDS011;22094;52.130;5.598;2024-02-21T01:52:30;18.58;;;8.18;;
23716;SDS011;22094;52.130;5.598;2024-02-21T01:55:00;13.68;;;8.70;;
23716;SDS011;22094;52.130;5.598;2024-02-21T01:57:27;17.02;;;8.15;;
23716;SDS011;22094;52.130;5.598;2024-02-21T01:59:56;17.98;;;8.75;;
23716;SDS011;22094;52.130;5.598;2024-02-21T02:02:21;21.05;;;9.20;;
23716;SDS011;22094;52.130;5.598;2024-02-21T02:04:48;18.63;;;9.02;;
23716;SDS011;22094;52.130;5.598;2024-02-21T02:07:14;22.08;;;8.80;;
23716;SDS011;22094;52.130;5.598;2024-02-21T02:09:40;22.20;;;8.70;;
23716;SDS011;22094;52.130;5.598;2024-02-21T02:12:15;20.95;;;9.25;;
23716;SDS011;22094;52.130;5.598;2024-02-21T02:14:41;23.48;;;9.82;;
23716;SDS011;22094;52.130;5.598;2024-02-21T02:17:07;18.48;;;8.95;;
23716;SDS011;22094;52.130;5.598;2024-02-21T02:19:35;18.75;;;8.82;;
23716;SDS011;22094;52.130;5.598;2024-02-21T02:22:15;16.17;;;9.18;;
23716;SDS011;22094;52.130;5.598;2024-02-21T02:24:47;21.27;;;9.68;;
23716;SDS011;22094;52.130;5.598;2024-02-21T02:27:15;19.80;;;9.32;;
23716;SDS011;22094;52.130;5.598;2024-02-21T02:29:41;25.33;;;10.07;;
23716;SDS011;22094;52.130;5.598;2024-02-21T02:32:07;16.25;;;9.32;;
23716;SDS011;22094;52.130;5.598;2024-02-21T02:34:33;20.83;;;10.80;;
23716;SDS011;22094;52.130;5.598;2024-02-21T02:36:58;17.30;;;10.20;;
23716;SDS011;22094;52.130;5.598;2024-02-21T02:39:27;18.00;;;10.40;;
23716;SDS011;22094;52.130;5.598;2024-02-21T02:41:55;22.25;;;10.05;;
23716;SDS011;22094;52.130;5.598;2024-02-21T02:44:26;25.73;;;10.32;;
23716;SDS011;22094;52.130;5.598;2024-02-21T02:46:55;17.85;;;9.50;;
23716;SDS011;22094;52.130;5.598;2024-02-21T02:49:20;27.83;;;10.98;;
23716;SDS011;22094;52.130;5.598;2024-02-21T02:51:49;23.08;;;10.05;;
23716;SDS011;22094;52.130;5.598;2024-02-21T02:54:15;26.23;;;10.48;;
23716;SDS011;22094;52.130;5.598;2024-02-21T02:56:40;18.98;;;9.75;;
23716;SDS011;22094;52.130;5.598;2024-02-21T02:59:06;19.35;;;9.93;;
23716;SDS011;22094;52.130;5.598;2024-02-21T03:01:35;21.48;;;9.52;;
23716;SDS011;22094;52.130;5.598;2024-02-21T03:04:01;17.25;;;9.35;;
23716;SDS011;22094;52.130;5.598;2024-02-21T03:06:27;21.42;;;9.55;;
23716;SDS011;22094;52.130;5.598;2024-02-21T03:08:53;19.63;;;10.20;;
23716;SDS011;22094;52.130;5.598;2024-02-21T03:11:20;20.85;;;9.85;;
23716;SDS011;22094;52.130;5.598;2024-02-21T03:13:54;24.73;;;9.65;;
23716;SDS011;22094;52.130;5.598;2024-02-21T03:16:22;23.65;;;9.95;;
23716;SDS011;22094;52.130;5.598;2024-02-21T03:18:54;19.20;;;10.10;;
23716;SDS011;22094;52.130;5.598;2024-02-21T03:21:22;20.75;;;10.20;;
23716;SDS011;22094;52.130;5.598;2024-02-21T03:23:51;22.73;;;9.43;;
23716;SDS011;22094;52.130;5.598;2024-02-21T03:26:38;22.00;;;10.10;;
23716;SDS011;22094;52.130;5.598;2024-02-21T03:29:14;20.95;;;11.13;;
23716;SDS011;22094;52.130;5.598;2024-02-21T03:31:46;21.60;;;10.65;;
23716;SDS011;22094;52.130;5.598;2024-02-21T03:34:40;20.00;;;9.32;;
23716;SDS011;22094;52.130;5.598;2024-02-21T03:37:13;17.58;;;9.55;;
23716;SDS011;22094;52.130;5.598;2024-02-21T03:39:44;22.02;;;10.05;;
23716;SDS011;22094;52.130;5.598;2024-02-21T03:42:10;18.50;;;10.23;;
23716;SDS011;22094;52.130;5.598;2024-02-21T03:44:41;17.38;;;9.98;;
23716;SDS011;22094;52.130;5.598;2024-02-21T03:47:10;18.20;;;9.60;;
23716;SDS011;22094;52.130;5.598;2024-02-21T03:49:36;20.85;;;9.27;;
23716;SDS011;22094;52.130;5.598;2024-02-21T03:52:32;19.13;;;9.13;;
23716;SDS011;22094;52.130;5.598;2024-02-21T03:55:14;17.42;;;9.27;;
23716;SDS011;22094;52.130;5.598;2024-02-21T03:57:55;19.05;;;9.65;;
23716;SDS011;22094;52.130;5.598;2024-02-21T04:00:47;18.80;;;9.80;;
23716;SDS011;22094;52.130;5.598;2024-02-21T04:03:30;17.25;;;9.48;;
23716;SDS011;22094;52.130;5.598;2024-02-21T04:05:56;18.60;;;9.57;;
23716;SDS011;22094;52.130;5.598;2024-02-21T04:08:22;21.95;;;10.75;;
23716;SDS011;22094;52.130;5.598;2024-02-21T04:10:51;20.33;;;10.02;;
23716;SDS011;22094;52.130;5.598;2024-02-21T04:13:40;17.88;;;9.73;;
23716;SDS011;22094;52.130;5.598;2024-02-21T04:16:06;20.85;;;10.98;;
23716;SDS011;22094;52.130;5.598;2024-02-21T04:18:40;24.13;;;10.65;;
23716;SDS011;22094;52.130;5.598;2024-02-21T04:21:09;21.20;;;10.60;;
23716;SDS011;22094;52.130;5.598;2024-02-21T04:23:53;16.17;;;9.95;;
23716;SDS011;22094;52.130;5.598;2024-02-21T04:26:27;18.23;;;10.15;;
23716;SDS011;22094;52.130;5.598;2024-02-21T04:29:15;18.02;;;9.73;;
23716;SDS011;22094;52.130;5.598;2024-02-21T04:31:54;24.17;;;10.05;;
23716;SDS011;22094;52.130;5.598;2024-02-21T04:34:20;21.35;;;10.43;;
23716;SDS011;22094;52.130;5.598;2024-02-21T04:36:50;21.83;;;11.68;;
23716;SDS011;22094;52.130;5.598;2024-02-21T04:39:26;13.95;;;9.85;;
23716;SDS011;22094;52.130;5.598;2024-02-21T04:42:07;18.15;;;10.30;;
23716;SDS011;22094;52.130;5.598;2024-02-21T04:44:35;17.48;;;10.73;;
23716;SDS011;22094;52.130;5.598;2024-02-21T04:47:27;18.23;;;10.23;;
23716;SDS011;22094;52.130;5.598;2024-02-21T04:50:06;22.15;;;10.43;;
23716;SDS011;22094;52.130;5.598;2024-02-21T04:52:45;21.08;;;10.65;;
23716;SDS011;22094;52.130;5.598;2024-02-21T04:55:21;22.58;;;10.90;;
23716;SDS011;22094;52.130;5.598;2024-02-21T04:57:55;16.92;;;9.95;;
23716;SDS011;22094;52.130;5.598;2024-02-21T05:00:31;24.45;;;11.63;;
23716;SDS011;22094;52.130;5.598;2024-02-21T05:03:27;14.45;;;8.93;;
23716;SDS011;22094;52.130;5.598;2024-02-21T05:06:19;19.35;;;10.70;;
23716;SDS011;22094;52.130;5.598;2024-02-21T05:08:59;20.50;;;9.75;;
23716;SDS011;22094;52.130;5.598;2024-02-21T05:11:33;18.95;;;9.43;;
23716;SDS011;22094;52.130;5.598;2024-02-21T05:14:11;18.15;;;9.95;;
23716;SDS011;22094;52.130;5.598;2024-02-21T05:16:42;15.18;;;9.93;;
23716;SDS011;22094;52.130;5.598;2024-02-21T05:19:10;21.05;;;10.05;;
23716;SDS011;22094;52.130;5.598;2024-02-21T05:21:38;27.05;;;9.63;;
23716;SDS011;22094;52.130;5.598;2024-02-21T05:24:04;16.50;;;9.95;;
23716;SDS011;22094;52.130;5.598;2024-02-21T05:27:04;18.65;;;10.27;;
23716;SDS011;22094;52.130;5.598;2024-02-21T05:29:41;19.35;;;10.43;;
23716;SDS011;22094;52.130;5.598;2024-02-21T05:32:29;20.52;;;10.35;;
23716;SDS011;22094;52.130;5.598;2024-02-21T05:35:08;16.85;;;10.63;;
23716;SDS011;22094;52.130;5.598;2024-02-21T05:37:42;21.85;;;10.38;;
23716;SDS011;22094;52.130;5.598;2024-02-21T05:40:23;17.52;;;11.02;;
23716;SDS011;22094;52.130;5.598;2024-02-21T05:42:51;23.90;;;11.38;;
23716;SDS011;22094;52.130;5.598;2024-02-21T05:45:23;18.17;;;10.95;;
23716;SDS011;22094;52.130;5.598;2024-02-21T05:48:00;18.42;;;11.35;;
23716;SDS011;22094;52.130;5.598;2024-02-21T05:50:29;17.08;;;11.25;;
23716;SDS011;22094;52.130;5.598;2024-02-21T05:53:04;21.48;;;10.88;;
23716;SDS011;22094;52.130;5.598;2024-02-21T05:55:41;17.85;;;11.27;;
23716;SDS011;22094;52.130;5.598;2024-02-21T05:58:20;17.50;;;11.48;;
23716;SDS011;22094;52.130;5.598;2024-02-21T06:01:21;17.55;;;11.32;;
23716;SDS011;22094;52.130;5.598;2024-02-21T06:04:05;22.10;;;11.60;;
23716;SDS011;22094;52.130;5.598;2024-02-21T06:07:07;19.23;;;11.05;;
23716;SDS011;22094;52.130;5.598;2024-02-21T06:09:49;21.48;;;12.40;;
23716;SDS011;22094;52.130;5.598;2024-02-21T06:12:40;21.08;;;12.50;;
23716;SDS011;22094;52.130;5.598;2024-02-21T06:15:41;20.83;;;12.43;;
23716;SDS011;22094;52.130;5.598;2024-02-21T06:18:39;22.30;;;12.40;;
23716;SDS011;22094;52.130;5.598;2024-02-21T06:21:24;22.63;;;14.23;;
23716;SDS011;22094;52.130;5.598;2024-02-21T06:24:17;23.10;;;13.73;;
23716;SDS011;22094;52.130;5.598;2024-02-21T06:26:55;25.38;;;14.20;;
23716;SDS011;22094;52.130;5.598;2024-02-21T06:30:16;27.38;;;14.55;;
23716;SDS011;22094;52.130;5.598;2024-02-21T06:33:06;23.60;;;14.80;;
23716;SDS011;22094;52.130;5.598;2024-02-21T06:38:52;28.42;;;16.35;;
23716;SDS011;22094;52.130;5.598;2024-02-21T06:41:23;31.20;;;17.42;;
23716;SDS011;22094;52.130;5.598;2024-02-21T06:43:49;33.13;;;18.55;;
23716;SDS011;22094;52.130;5.598;2024-02-21T06:46:29;32.05;;;18.73;;
23716;SDS011;22094;52.130;5.598;2024-02-21T06:49:01;34.90;;;18.58;;
23716;SDS011;22094;52.130;5.598;2024-02-21T06:51:28;36.22;;;18.30;;
23716;SDS011;22094;52.130;5.598;2024-02-21T06:53:54;30.98;;;19.52;;
23716;SDS011;22094;52.130;5.598;2024-02-21T06:56:22;35.97;;;19.65;;
23716;SDS011;22094;52.130;5.598;2024-02-21T06:58:56;37.63;;;18.15;;
23716;SDS011;22094;52.130;5.598;2024-02-21T07:01:31;31.08;;;17.95;;
23716;SDS011;22094;52.130;5.598;2024-02-21T07:04:12;32.08;;;18.45;;
23716;SDS011;22094;52.130;5.598;2024-02-21T07:07:15;33.17;;;17.35;;
23716;SDS011;22094;52.130;5.598;2024-02-21T07:13:11;33.92;;;18.02;;
23716;SDS011;22094;52.130;5.598;2024-02-21T07:15:58;34.22;;;16.42;;
23716;SDS011;22094;52.130;5.598;2024-02-21T07:18:46;25.80;;;16.63;;
23716;SDS011;22094;52.130;5.598;2024-02-21T07:21:14;29.23;;;15.68;;
23716;SDS011;22094;52.130;5.598;2024-02-21T07:26:53;28.60;;;15.07;;
23716;SDS011;22094;52.130;5.598;2024-02-21T07:32:33;28.20;;;14.50;;
23716;SDS011;22094;52.130;5.598;2024-02-21T07:35:40;27.33;;;14.25;;
23716;SDS011;22094;52.130;5.598;2024-02-21T07:41:03;25.80;;;13.70;;
23716;SDS011;22094;52.130;5.598;2024-02-21T07:43:58;23.92;;;13.75;;
23716;SDS011;22094;52.130;5.598;2024-02-21T07:50:09;27.90;;;13.02;;
23716;SDS011;22094;52.130;5.598;2024-02-21T07:56:12;23.00;;;11.98;;
23716;SDS011;22094;52.130;5.598;2024-02-21T07:59:00;29.52;;;13.82;;
23716;SDS011;22094;52.130;5.598;2024-02-21T08:22:58;23.23;;;12.95;;
23716;SDS011;22094;52.130;5.598;2024-02-21T08:28:08;20.63;;;11.70;;
23716;SDS011;22094;52.130;5.598;2024-02-21T08:30:52;24.02;;;12.07;;
23716;SDS011;22094;52.130;5.598;2024-02-21T08:33:25;17.73;;;11.50;;
23716;SDS011;22094;52.130;5.598;2024-02-21T08:36:02;23.27;;;12.95;;
23716;SDS011;22094;52.130;5.598;2024-02-21T08:39:09;20.77;;;11.48;;
23716;SDS011;22094;52.130;5.598;2024-02-21T08:42:01;23.92;;;12.52;;
23716;SDS011;22094;52.130;5.598;2024-02-21T09:02:37;22.80;;;11.25;;
23716;SDS011;22094;52.130;5.598;2024-02-21T09:05:17;19.27;;;11.45;;
23716;SDS011;22094;52.130;5.598;2024-02-21T09:19:22;18.90;;;11.45;;
23716;SDS011;22094;52.130;5.598;2024-02-21T09:29:47;19.98;;;10.00;;
23716;SDS011;22094;52.130;5.598;2024-02-21T09:36:42;16.50;;;9.15;;
23716;SDS011;22094;52.130;5.598;2024-02-21T11:21:37;9.35;;;7.10;;
23716;SDS011;22094;52.130;5.598;2024-02-21T11:45:20;10.93;;;8.63;;
23716;SDS011;22094;52.130;5.598;2024-02-21T11:57:56;14.98;;;10.07;;
23716;SDS011;22094;52.130;5.598;2024-02-21T12:01:07;12.25;;;9.18;;
23716;SDS011;22094;52.130;5.598;2024-02-21T12:03:43;15.98;;;9.93;;
23716;SDS011;22094;52.130;5.598;2024-02-21T12:12:38;15.27;;;8.88;;
23716;SDS011;22094;52.130;5.598;2024-02-21T12:15:18;12.93;;;8.73;;
23716;SDS011;22094;52.130;5.598;2024-02-21T13:35:16;11.95;;;5.93;;
23716;SDS011;22094;52.130;5.598;2024-02-21T13:41:26;10.57;;;6.15;;
23716;SDS011;22094;52.130;5.598;2024-02-21T14:03:58;14.98;;;6.38;;
23716;SDS011;22094;52.130;5.598;2024-02-21T15:02:07;9.55;;;4.50;;
23716;SDS011;22094;52.130;5.598;2024-02-21T15:16:21;10.63;;;5.65;;
23716;SDS011;22094;52.130;5.598;2024-02-21T15:19:09;9.65;;;4.82;;
23716;SDS011;22094;52.130;5.598;2024-02-21T15:21:52;8.55;;;5.20;;
23716;SDS011;22094;52.130;5.598;2024-02-21T15:24:20;9.00;;;4.95;;
23716;SDS011;22094;52.130;5.598;2024-02-21T15:26:46;10.82;;;5.85;;
23716;SDS011;22094;52.130;5.598;2024-02-21T15:29:11;9.15;;;5.85;;
23716;SDS011;22094;52.130;5.598;2024-02-21T15:31:37;10.32;;;6.22;;
23716;SDS011;22094;52.130;5.598;2024-02-21T15:34:02;16.77;;;7.85;;
23716;SDS011;22094;52.130;5.598;2024-02-21T15:36:28;13.98;;;7.53;;
23716;SDS011;22094;52.130;5.598;2024-02-21T15:38:54;13.15;;;8.73;;
23716;SDS011;22094;52.130;5.598;2024-02-21T15:41:19;12.48;;;8.02;;
23716;SDS011;22094;52.130;5.598;2024-02-21T15:44:01;19.42;;;9.85;;
23716;SDS011;22094;52.130;5.598;2024-02-21T15:46:29;13.63;;;9.55;;
23716;SDS011;22094;52.130;5.598;2024-02-21T15:48:56;11.60;;;8.35;;
23716;SDS011;22094;52.130;5.598;2024-02-21T15:51:22;12.65;;;8.18;;
23716;SDS011;22094;52.130;5.598;2024-02-21T15:53:48;14.40;;;7.95;;
23716;SDS011;22094;52.130;5.598;2024-02-21T15:56:14;13.23;;;8.07;;
23716;SDS011;22094;52.130;5.598;2024-02-21T15:58:40;12.45;;;8.50;;
23716;SDS011;22094;52.130;5.598;2024-02-21T16:01:05;9.68;;;7.00;;
23716;SDS011;22094;52.130;5.598;2024-02-21T16:03:31;14.27;;;7.07;;
23716;SDS011;22094;52.130;5.598;2024-02-21T16:05:57;13.77;;;7.05;;
23716;SDS011;22094;52.130;5.598;2024-02-21T16:08:23;13.32;;;7.10;;
23716;SDS011;22094;52.130;5.598;2024-02-21T16:10:49;16.02;;;7.60;;
23716;SDS011;22094;52.130;5.598;2024-02-21T16:13:15;13.70;;;6.93;;
23716;SDS011;22094;52.130;5.598;2024-02-21T16:15:42;11.23;;;7.00;;
23716;SDS011;22094;52.130;5.598;2024-02-21T16:18:08;10.55;;;8.02;;
23716;SDS011;22094;52.130;5.598;2024-02-21T16:20:34;13.77;;;8.50;;
23716;SDS011;22094;52.130;5.598;2024-02-21T16:22:59;11.73;;;7.57;;
23716;SDS011;22094;52.130;5.598;2024-02-21T16:25:28;15.48;;;8.07;;
23716;SDS011;22094;52.130;5.598;2024-02-21T16:27:54;14.50;;;8.30;;
23716;SDS011;22094;52.130;5.598;2024-02-21T16:30:19;15.20;;;8.20;;
23716;SDS011;22094;52.130;5.598;2024-02-21T16:32:48;13.30;;;8.63;;
23716;SDS011;22094;52.130;5.598;2024-02-21T16:35:13;14.95;;;8.68;;
23716;SDS011;22094;52.130;5.598;2024-02-21T16:37:39;18.60;;;8.93;;
23716;SDS011;22094;52.130;5.598;2024-02-21T16:40:05;12.32;;;8.73;;
23716;SDS011;22094;52.130;5.598;2024-02-21T16:42:31;16.23;;;9.38;;
23716;SDS011;22094;52.130;5.598;2024-02-21T16:44:57;16.73;;;8.85;;
23716;SDS011;22094;52.130;5.598;2024-02-21T16:47:23;13.63;;;9.48;;
23716;SDS011;22094;52.130;5.598;2024-02-21T16:49:50;19.13;;;9.43;;
23716;SDS011;22094;52.130;5.598;2024-02-21T16:52:15;14.75;;;8.88;;
23716;SDS011;22094;52.130;5.598;2024-02-21T16:54:41;15.45;;;8.70;;
23716;SDS011;22094;52.130;5.598;2024-02-21T16:57:07;16.38;;;9.05;;
23716;SDS011;22094;52.130;5.598;2024-02-21T16:59:34;16.38;;;9.77;;
23716;SDS011;22094;52.130;5.598;2024-02-21T17:02:02;12.70;;;8.88;;
23716;SDS011;22094;52.130;5.598;2024-02-21T17:04:28;15.75;;;8.23;;
23716;SDS011;22094;52.130;5.598;2024-02-21T17:06:54;15.60;;;7.70;;
23716;SDS011;22094;52.130;5.598;2024-02-21T17:09:21;12.25;;;8.52;;
23716;SDS011;22094;52.130;5.598;2024-02-21T17:11:46;15.13;;;8.07;;
23716;SDS011;22094;52.130;5.598;2024-02-21T17:14:12;12.90;;;7.57;;
23716;SDS011;22094;52.130;5.598;2024-02-21T17:16:38;11.57;;;8.07;;
23716;SDS011;22094;52.130;5.598;2024-02-21T17:19:03;15.93;;;8.13;;
23716;SDS011;22094;52.130;5.598;2024-02-21T17:21:32;14.63;;;8.20;;
23716;SDS011;22094;52.130;5.598;2024-02-21T17:23:57;17.15;;;9.38;;
23716;SDS011;22094;52.130;5.598;2024-02-21T17:26:23;14.00;;;8.27;;
23716;SDS011;22094;52.130;5.598;2024-02-21T17:28:52;17.52;;;8.80;;
23716;SDS011;22094;52.130;5.598;2024-02-21T17:31:19;19.92;;;8.95;;
23716;SDS011;22094;52.130;5.598;2024-02-21T17:33:45;14.60;;;8.98;;
23716;SDS011;22094;52.130;5.598;2024-02-21T17:36:11;15.38;;;8.40;;
23716;SDS011;22094;52.130;5.598;2024-02-21T17:38:37;16.58;;;10.05;;
23716;SDS011;22094;52.130;5.598;2024-02-21T17:41:02;17.27;;;11.02;;
23716;SDS011;22094;52.130;5.598;2024-02-21T17:43:28;13.90;;;10.23;;
23716;SDS011;22094;52.130;5.598;2024-02-21T17:45:59;14.30;;;9.88;;
23716;SDS011;22094;52.130;5.598;2024-02-21T17:48:25;15.13;;;9.27;;
23716;SDS011;22094;52.130;5.598;2024-02-21T17:50:52;16.40;;;10.10;;
23716;SDS011;22094;52.130;5.598;2024-02-21T17:53:17;12.85;;;9.20;;
23716;SDS011;22094;52.130;5.598;2024-02-21T17:55:43;14.05;;;10.70;;
23716;SDS011;22094;52.130;5.598;2024-02-21T17:58:09;13.27;;;9.70;;
23716;SDS011;22094;52.130;5.598;2024-02-21T18:00:34;13.95;;;8.88;;
23716;SDS011;22094;52.130;5.598;2024-02-21T18:03:00;16.77;;;9.25;;
23716;SDS011;22094;52.130;5.598;2024-02-21T18:05:28;14.23;;;9.60;;
23716;SDS011;22094;52.130;5.598;2024-02-21T18:07:54;13.20;;;10.13;;
23716;SDS011;22094;52.130;5.598;2024-02-21T18:10:19;16.88;;;9.73;;
23716;SDS011;22094;52.130;5.598;2024-02-21T18:12:46;14.70;;;9.65;;
23716;SDS011;22094;52.130;5.598;2024-02-21T18:15:12;14.77;;;9.73;;
23716;SDS011;22094;52.130;5.598;2024-02-21T18:17:38;15.90;;;9.68;;
23716;SDS011;22094;52.130;5.598;2024-02-21T18:20:05;13.07;;;9.80;;
23716;SDS011;22094;52.130;5.598;2024-02-21T18:22:34;14.00;;;9.82;;
23716;SDS011;22094;52.130;5.598;2024-02-21T18:25:00;19.65;;;12.50;;
23716;SDS011;22094;52.130;5.598;2024-02-21T18:27:27;25.10;;;13.35;;
23716;SDS011;22094;52.130;5.598;2024-02-21T18:29:53;20.83;;;12.48;;
23716;SDS011;22094;52.130;5.598;2024-02-21T18:32:19;14.95;;;11.07;;
23716;SDS011;22094;52.130;5.598;2024-02-21T18:34:45;16.95;;;12.90;;
23716;SDS011;22094;52.130;5.598;2024-02-21T18:37:10;16.58;;;11.07;;
23716;SDS011;22094;52.130;5.598;2024-02-21T18:39:40;16.75;;;11.32;;
23716;SDS011;22094;52.130;5.598;2024-02-21T18:42:06;19.25;;;12.18;;
23716;SDS011;22094;52.130;5.598;2024-02-21T18:44:32;18.88;;;12.40;;
23716;SDS011;22094;52.130;5.598;2024-02-21T18:46:58;18.05;;;11.50;;
23716;SDS011;22094;52.130;5.598;2024-02-21T18:49:24;19.30;;;12.55;;
23716;SDS011;22094;52.130;5.598;2024-02-21T18:51:50;15.88;;;12.20;;
23716;SDS011;22094;52.130;5.598;2024-02-21T18:54:16;16.08;;;12.45;;
23716;SDS011;22094;52.130;5.598;2024-02-21T18:56:45;19.17;;;12.95;;
23716;SDS011;22094;52.130;5.598;2024-02-21T18:59:11;17.77;;;14.00;;
23716;SDS011;22094;52.130;5.598;2024-02-21T19:01:37;17.08;;;14.13;;
23716;SDS011;22094;52.130;5.598;2024-02-21T19:04:03;21.27;;;13.45;;
23716;SDS011;22094;52.130;5.598;2024-02-21T19:06:28;18.77;;;14.65;;
23716;SDS011;22094;52.130;5.598;2024-02-21T19:08:54;16.42;;;12.80;;
23716;SDS011;22094;52.130;5.598;2024-02-21T19:11:22;14.55;;;12.32;;
23716;SDS011;22094;52.130;5.598;2024-02-21T19:13:47;15.60;;;13.18;;
23716;SDS011;22094;52.130;5.598;2024-02-21T19:16:14;17.27;;;13.90;;
23716;SDS011;22094;52.130;5.598;2024-02-21T19:18:40;23.67;;;18.02;;
23716;SDS011;22094;52.130;5.598;2024-02-21T19:21:06;15.75;;;12.63;;
23716;SDS011;22094;52.130;5.598;2024-02-21T19:23:33;21.63;;;13.57;;
23716;SDS011;22094;52.130;5.598;2024-02-21T19:25:59;19.70;;;14.68;;
23716;SDS011;22094;52.130;5.598;2024-02-21T19:28:25;19.42;;;12.95;;
23716;SDS011;22094;52.130;5.598;2024-02-21T19:30:51;15.82;;;13.35;;
23716;SDS011;22094;52.130;5.598;2024-02-21T19:33:19;17.98;;;13.18;;
23716;SDS011;22094;52.130;5.598;2024-02-21T19:35:45;20.45;;;16.23;;
23716;SDS011;22094;52.130;5.598;2024-02-21T19:38:11;19.73;;;13.40;;
23716;SDS011;22094;52.130;5.598;2024-02-21T19:40:36;20.55;;;13.50;;
23716;SDS011;22094;52.130;5.598;2024-02-21T19:43:02;18.95;;;15.10;;
23716;SDS011;22094;52.130;5.598;2024-02-21T19:45:28;18.00;;;13.98;;
23716;SDS011;22094;52.130;5.598;2024-02-21T19:47:54;14.85;;;13.02;;
23716;SDS011;22094;52.130;5.598;2024-02-21T19:50:20;21.05;;;16.98;;
23716;SDS011;22094;52.130;5.598;2024-02-21T19:52:47;19.13;;;15.70;;
23716;SDS011;22094;52.130;5.598;2024-02-21T19:55:16;28.30;;;21.25;;
23716;SDS011;22094;52.130;5.598;2024-02-21T19:57:42;19.58;;;15.18;;
23716;SDS011;22094;52.130;5.598;2024-02-21T20:00:08;23.38;;;16.38;;
23716;SDS011;22094;52.130;5.598;2024-02-21T20:02:34;17.83;;;14.13;;
23716;SDS011;22094;52.130;5.598;2024-02-21T20:05:00;20.27;;;14.95;;
23716;SDS011;22094;52.130;5.598;2024-02-21T20:07:26;17.02;;;14.35;;
23716;SDS011;22094;52.130;5.598;2024-02-21T20:09:52;16.17;;;12.77;;
23716;SDS011;22094;52.130;5.598;2024-02-21T20:12:17;17.02;;;15.27;;
23716;SDS011;22094;52.130;5.598;2024-02-21T20:14:45;19.40;;;13.63;;
23716;SDS011;22094;52.130;5.598;2024-02-21T20:17:10;18.52;;;13.63;;
23716;SDS011;22094;52.130;5.598;2024-02-21T20:19:36;16.98;;;14.02;;
23716;SDS011;22094;52.130;5.598;2024-02-21T20:22:03;17.80;;;14.32;;
23716;SDS011;22094;52.130;5.598;2024-02-21T20:24:29;18.20;;;13.52;;
23716;SDS011;22094;52.130;5.598;2024-02-21T20:26:56;15.98;;;13.52;;
23716;SDS011;22094;52.130;5.598;2024-02-21T20:29:22;16.15;;;13.52;;
23716;SDS011;22094;52.130;5.598;2024-02-21T20:31:48;16.73;;;13.10;;
23716;SDS011;22094;52.130;5.598;2024-02-21T20:34:13;16.35;;;14.23;;
23716;SDS011;22094;52.130;5.598;2024-02-21T20:36:41;16.13;;;13.50;;
23716;SDS011;22094;52.130;5.598;2024-02-21T20:39:10;15.27;;;13.20;;
23716;SDS011;22094;52.130;5.598;2024-02-21T20:41:36;15.32;;;13.18;;
23716;SDS011;22094;52.130;5.598;2024-02-21T20:44:05;17.17;;;13.82;;
23716;SDS011;22094;52.130;5.598;2024-02-21T20:46:34;17.05;;;13.95;;
23716;SDS011;22094;52.130;5.598;2024-02-21T20:48:59;14.73;;;13.13;;
23716;SDS011;22094;52.130;5.598;2024-02-21T20:51:30;17.98;;;13.75;;
23716;SDS011;22094;52.130;5.598;2024-02-21T20:54:15;15.00;;;12.90;;
23716;SDS011;22094;52.130;5.598;2024-02-21T20:57:02;14.10;;;12.68;;
23716;SDS011;22094;52.130;5.598;2024-02-21T20:59:28;14.68;;;12.90;;
23716;SDS011;22094;52.130;5.598;2024-02-21T21:01:54;15.75;;;13.50;;
23716;SDS011;22094;52.130;5.598;2024-02-21T21:04:19;16.98;;;14.25;;
23716;SDS011;22094;52.130;5.598;2024-02-21T21:06:45;18.73;;;14.70;;
23716;SDS011;22094;52.130;5.598;2024-02-21T21:09:11;15.45;;;13.82;;
23716;SDS011;22094;52.130;5.598;2024-02-21T21:11:37;18.42;;;16.38;;
23716;SDS011;22094;52.130;5.598;2024-02-21T21:14:05;17.38;;;15.15;;
23716;SDS011;22094;52.130;5.598;2024-02-21T21:16:34;17.25;;;14.90;;
23716;SDS011;22094;52.130;5.598;2024-02-21T21:18:59;16.20;;;14.55;;
23716;SDS011;22094;52.130;5.598;2024-02-21T21:21:25;17.27;;;15.43;;
23716;SDS011;22094;52.130;5.598;2024-02-21T21:23:54;21.35;;;16.85;;
23716;SDS011;22094;52.130;5.598;2024-02-21T21:26:20;15.00;;;13.48;;
23716;SDS011;22094;52.130;5.598;2024-02-21T21:28:46;24.60;;;20.15;;
23716;SDS011;22094;52.130;5.598;2024-02-21T21:31:11;18.08;;;15.77;;
23716;SDS011;22094;52.130;5.598;2024-02-21T21:33:48;22.20;;;18.10;;
23716;SDS011;22094;52.130;5.598;2024-02-21T21:36:13;17.27;;;14.32;;